createdAt,value
2023-05-19T00:00:48.963Z,6.13
2023-05-19T00:01:47.595Z,6.21
2023-05-19T00:02:47.672Z,6.13
2023-05-19T00:03:47.563Z,6.18
2023-05-19T00:04:47.568Z,5.97
2023-05-19T00:05:47.594Z,6.09
2023-05-19T00:06:47.548Z,5.91
2023-05-19T00:07:47.547Z,5.88
2023-05-19T00:08:47.552Z,5.81
2023-05-19T00:09:47.528Z,5.81
2023-05-19T00:10:47.522Z,5.81
2023-05-19T00:11:47.530Z,6.06
2023-05-19T00:12:47.529Z,6.09
2023-05-19T00:13:47.521Z,6.03
2023-05-19T00:14:47.521Z,6.10
2023-05-19T00:15:47.560Z,6.08
2023-05-19T00:16:47.509Z,5.83
2023-05-19T00:17:47.547Z,6.07
2023-05-19T00:18:47.577Z,6.07
2023-05-19T00:19:47.521Z,6.08
2023-05-19T00:20:47.523Z,6.05
2023-05-19T00:21:47.514Z,6.05
2023-05-19T00:22:47.537Z,6.00
2023-05-19T00:23:47.541Z,5.98
2023-05-19T00:24:47.525Z,6.01
2023-05-19T00:25:47.511Z,5.97
2023-05-19T00:26:47.509Z,6.02
2023-05-19T00:27:47.507Z,5.98
2023-05-19T00:28:47.491Z,5.92
2023-05-19T00:29:47.497Z,5.73
2023-05-19T00:30:47.492Z,5.95
2023-05-19T00:31:47.593Z,5.82
2023-05-19T00:32:47.482Z,5.96
2023-05-19T00:33:47.489Z,5.96
2023-05-19T00:34:47.459Z,5.89
2023-05-19T00:35:47.468Z,5.90
2023-05-19T00:36:47.478Z,5.89
2023-05-19T00:37:47.440Z,5.66
2023-05-19T00:38:47.441Z,5.95
2023-05-19T00:39:47.446Z,5.77
2023-05-19T00:40:47.514Z,5.89
2023-05-19T00:41:47.490Z,5.88
2023-05-19T00:42:47.420Z,5.82
2023-05-19T00:43:47.428Z,5.93
2023-05-19T00:44:47.409Z,5.83
2023-05-19T00:45:47.417Z,5.90
2023-05-19T00:46:47.417Z,5.85
2023-05-19T00:47:47.426Z,5.90
2023-05-19T00:48:47.414Z,5.83
2023-05-19T00:49:47.409Z,5.85
2023-05-19T00:50:47.421Z,5.84
2023-05-19T00:51:47.402Z,5.79
2023-05-19T00:52:47.402Z,5.79
2023-05-19T00:53:47.410Z,5.86
2023-05-19T00:54:47.405Z,5.86
2023-05-19T00:55:47.422Z,5.78
2023-05-19T00:56:47.398Z,5.78
2023-05-19T00:57:47.426Z,5.78
2023-05-19T00:58:47.402Z,5.82
2023-05-19T00:59:47.420Z,5.74
2023-05-19T01:00:47.465Z,5.72
2023-05-19T01:01:47.387Z,5.56
2023-05-19T01:02:47.467Z,5.76
2023-05-19T01:03:47.438Z,5.73
2023-05-19T01:04:47.376Z,5.76
2023-05-19T01:05:47.447Z,5.72
2023-05-19T01:06:47.437Z,5.76
2023-05-19T01:07:47.453Z,5.74
2023-05-19T01:08:47.412Z,5.70
2023-05-19T01:09:47.388Z,5.76
2023-05-19T01:10:47.381Z,5.71
2023-05-19T01:11:47.444Z,5.74
2023-05-19T01:12:47.365Z,5.71
2023-05-19T01:13:47.361Z,5.70
2023-05-19T01:14:47.414Z,5.69
2023-05-19T01:15:47.434Z,5.73
2023-05-19T01:16:47.474Z,5.70
2023-05-19T01:17:47.422Z,5.73
2023-05-19T01:18:47.427Z,5.61
2023-05-19T01:19:47.442Z,5.66
2023-05-19T01:20:47.356Z,5.68
2023-05-19T01:21:47.363Z,5.64
2023-05-19T01:22:47.348Z,5.70
2023-05-19T01:23:47.396Z,5.67
2023-05-19T01:24:47.373Z,5.69
2023-05-19T01:25:47.432Z,5.60
2023-05-19T01:26:47.377Z,5.46
2023-05-19T01:27:47.352Z,5.62
2023-05-19T01:28:47.354Z,5.68
2023-05-19T01:29:47.404Z,5.70
2023-05-19T01:30:47.370Z,5.58
2023-05-19T01:31:47.389Z,5.67
2023-05-19T01:32:47.298Z,5.60
2023-05-19T01:33:47.264Z,5.61
2023-05-19T01:34:47.251Z,5.66
2023-05-19T01:35:47.244Z,5.57
2023-05-19T01:36:47.232Z,5.63
2023-05-19T01:37:47.252Z,5.64
2023-05-19T01:38:47.245Z,5.54
2023-05-19T01:39:47.259Z,5.57
2023-05-19T01:40:47.236Z,5.53
2023-05-19T01:41:47.262Z,5.41
2023-05-19T01:42:47.242Z,5.56
2023-05-19T01:43:47.248Z,5.59
2023-05-19T01:44:47.257Z,5.57
2023-05-19T01:45:47.315Z,5.64
2023-05-19T01:46:47.244Z,5.53
2023-05-19T01:47:47.254Z,5.53
2023-05-19T01:48:47.228Z,5.35
2023-05-19T01:49:47.226Z,5.50
2023-05-19T01:50:47.222Z,5.50
2023-05-19T01:51:47.214Z,5.51
2023-05-19T01:52:47.208Z,5.53
2023-05-19T01:53:47.225Z,5.62
2023-05-19T01:54:47.221Z,5.49
2023-05-19T01:55:47.226Z,5.42
2023-05-19T01:56:47.258Z,5.48
2023-05-19T01:57:47.279Z,5.51
2023-05-19T01:58:47.288Z,5.52
2023-05-19T01:59:47.442Z,5.47
2023-05-19T02:00:47.391Z,5.46
2023-05-19T02:01:47.493Z,5.48
2023-05-19T02:02:47.431Z,5.46
2023-05-19T02:03:47.485Z,5.49
2023-05-19T02:04:47.484Z,5.45
2023-05-19T02:05:47.491Z,5.41
2023-05-19T02:06:47.552Z,5.37
2023-05-19T02:07:47.478Z,5.42
2023-05-19T02:08:47.487Z,5.35
2023-05-19T02:09:47.525Z,5.34
2023-05-19T02:10:47.532Z,5.40
2023-05-19T02:11:47.570Z,5.40
2023-05-19T02:12:47.586Z,5.43
2023-05-19T02:13:47.520Z,5.43
2023-05-19T02:14:47.525Z,5.47
2023-05-19T02:15:47.593Z,5.46
2023-05-19T02:16:47.592Z,5.44
2023-05-19T02:17:47.561Z,5.35
2023-05-19T02:18:47.565Z,5.48
2023-05-19T02:19:47.521Z,5.45
2023-05-19T02:20:47.522Z,5.42
2023-05-19T02:21:47.531Z,5.39
2023-05-19T02:22:47.511Z,5.43
2023-05-19T02:23:47.509Z,5.43
2023-05-19T02:24:47.510Z,5.40
2023-05-19T02:25:47.531Z,5.36
2023-05-19T02:26:47.518Z,5.37
2023-05-19T02:27:47.533Z,5.32
2023-05-19T02:28:47.563Z,5.35
2023-05-19T02:29:47.498Z,5.39
2023-05-19T02:30:47.489Z,5.33
2023-05-19T02:31:47.538Z,5.22
2023-05-19T02:32:47.614Z,5.39
2023-05-19T02:33:47.492Z,5.34
2023-05-19T02:34:47.513Z,5.27
2023-05-19T02:35:47.530Z,5.36
2023-05-19T02:36:47.572Z,5.26
2023-05-19T02:37:47.586Z,5.28
2023-05-19T02:38:47.604Z,5.22
2023-05-19T02:39:47.637Z,5.28
2023-05-19T02:40:47.661Z,5.37
2023-05-19T02:41:47.686Z,5.29
2023-05-19T02:42:47.690Z,5.26
2023-05-19T02:43:47.723Z,5.25
2023-05-19T02:44:47.744Z,5.25
2023-05-19T02:45:47.762Z,5.23
2023-05-19T02:46:47.792Z,5.27
2023-05-19T02:47:47.823Z,5.25
2023-05-19T02:48:47.820Z,5.08
2023-05-19T02:49:47.837Z,5.08
2023-05-19T02:50:47.851Z,4.88
2023-05-19T02:51:47.902Z,4.81
2023-05-19T02:52:47.896Z,4.69
2023-05-19T02:53:47.944Z,4.55
2023-05-19T02:54:47.979Z,4.37
2023-05-19T02:55:48.060Z,4.15
2023-05-19T02:56:48.059Z,3.95
2023-05-19T02:57:48.097Z,3.94
2023-05-19T02:58:48.143Z,3.78
2023-05-19T02:59:48.197Z,3.57
2023-05-19T03:00:48.280Z,3.53
2023-05-19T03:01:48.367Z,3.39
2023-05-19T03:02:48.511Z,3.32
2023-05-19T03:03:48.574Z,3.24
2023-05-19T03:04:48.534Z,3.15
2023-05-19T03:05:48.602Z,3.01
2023-05-19T03:06:48.685Z,2.92
2023-05-19T03:07:48.719Z,2.89
2023-05-19T03:08:48.768Z,2.76
2023-05-19T03:09:48.783Z,2.70
2023-05-19T03:10:48.855Z,2.64
2023-05-19T03:11:48.950Z,2.58
2023-05-19T03:12:48.963Z,2.49
2023-05-19T03:13:49.024Z,2.40
2023-05-19T03:14:49.062Z,2.37
2023-05-19T03:15:49.136Z,2.29
2023-05-19T03:16:49.231Z,2.23
2023-05-19T03:17:49.158Z,2.19
2023-05-19T03:18:49.164Z,2.12
2023-05-19T03:19:49.126Z,2.08
2023-05-19T03:20:49.139Z,2.08
2023-05-19T03:21:49.142Z,2.01
2023-05-19T03:22:49.153Z,2.00
2023-05-19T03:23:49.155Z,1.96
2023-05-19T03:24:49.280Z,1.91
2023-05-19T03:25:49.272Z,1.88
2023-05-19T03:26:49.290Z,1.85
2023-05-19T03:27:49.297Z,1.85
2023-05-19T03:28:49.323Z,1.81
2023-05-19T03:29:49.352Z,1.79
2023-05-19T03:30:49.371Z,1.72
2023-05-19T03:31:49.383Z,1.74
2023-05-19T03:32:49.501Z,1.72
2023-05-19T03:33:49.463Z,1.71
2023-05-19T03:34:49.543Z,1.68
2023-05-19T03:35:49.657Z,1.66
2023-05-19T03:36:49.710Z,1.63
2023-05-19T03:37:49.705Z,1.64
2023-05-19T03:38:49.733Z,1.63
2023-05-19T03:39:49.776Z,1.59
2023-05-19T03:40:49.802Z,1.60
2023-05-19T03:41:49.849Z,1.59
2023-05-19T03:42:49.858Z,1.56
2023-05-19T03:43:49.885Z,1.58
2023-05-19T03:44:49.909Z,1.54
2023-05-19T03:45:49.939Z,1.51
2023-05-19T03:46:50.005Z,1.50
2023-05-19T03:47:50.076Z,1.51
2023-05-19T03:48:50.046Z,1.51
2023-05-19T03:49:50.072Z,1.50
2023-05-19T03:50:50.117Z,1.48
2023-05-19T03:51:50.154Z,1.51
2023-05-19T03:52:50.182Z,1.44
2023-05-19T03:53:50.208Z,1.42
2023-05-19T03:54:50.249Z,1.45
2023-05-19T03:55:50.295Z,1.37
2023-05-19T03:56:50.327Z,1.41
2023-05-19T03:57:50.344Z,1.39
2023-05-19T03:58:50.348Z,1.39
2023-05-19T03:59:50.380Z,1.39
2023-05-19T04:00:50.491Z,1.35
2023-05-19T04:01:50.508Z,1.33
2023-05-19T04:02:50.572Z,1.35
2023-05-19T04:03:50.533Z,1.34
2023-05-19T04:04:50.745Z,1.33
2023-05-19T04:05:50.620Z,1.33
2023-05-19T04:06:50.660Z,1.33
2023-05-19T04:07:50.684Z,1.32
2023-05-19T04:08:50.741Z,1.32
2023-05-19T04:09:50.759Z,1.30
2023-05-19T04:10:50.792Z,1.30
2023-05-19T04:11:50.853Z,1.26
2023-05-19T04:12:50.905Z,1.28
2023-05-19T04:13:50.938Z,1.26
2023-05-19T04:14:50.987Z,1.29
2023-05-19T04:15:51.086Z,1.27
2023-05-19T04:16:51.110Z,1.24
2023-05-19T04:17:51.146Z,1.24
2023-05-19T04:18:51.229Z,1.23
2023-05-19T04:19:51.220Z,1.23
2023-05-19T04:20:51.268Z,1.23
2023-05-19T04:21:51.312Z,1.21
2023-05-19T04:22:51.362Z,1.22
2023-05-19T04:23:51.402Z,1.22
2023-05-19T04:24:51.429Z,1.19
2023-05-19T04:25:51.473Z,1.22
2023-05-19T04:26:51.531Z,1.20
2023-05-19T04:27:51.583Z,1.19
2023-05-19T04:28:51.620Z,1.21
2023-05-19T04:29:51.681Z,1.19
2023-05-19T04:30:51.885Z,1.20
2023-05-19T04:31:51.797Z,1.20
2023-05-19T04:32:51.896Z,1.18
2023-05-19T04:33:51.900Z,1.17
2023-05-19T04:34:51.961Z,1.20
2023-05-19T04:35:52.012Z,1.15
2023-05-19T04:36:53.502Z,1.19
2023-05-19T04:37:52.086Z,1.17
2023-05-19T04:38:52.105Z,1.17
2023-05-19T04:39:52.166Z,1.18
2023-05-19T04:40:52.196Z,1.16
2023-05-19T04:41:52.252Z,1.19
2023-05-19T04:42:52.382Z,1.16
2023-05-19T04:43:52.334Z,1.16
2023-05-19T04:44:52.385Z,1.15
2023-05-19T04:45:52.466Z,1.16
2023-05-19T04:46:52.485Z,1.17
2023-05-19T04:47:52.587Z,1.15
2023-05-19T04:48:52.557Z,1.14
2023-05-19T04:49:52.565Z,1.14
2023-05-19T04:50:52.581Z,1.14
2023-05-19T04:51:55.588Z,1.14
2023-05-19T04:52:52.595Z,1.17
2023-05-19T04:53:52.593Z,1.15
2023-05-19T04:54:52.601Z,1.16
2023-05-19T04:55:52.624Z,1.17
2023-05-19T04:56:52.648Z,1.13
2023-05-19T04:57:52.633Z,1.14
2023-05-19T04:58:52.656Z,1.16
2023-05-19T04:59:52.664Z,1.15
2023-05-19T05:00:52.643Z,1.14
2023-05-19T05:01:52.773Z,1.13
2023-05-19T05:02:52.724Z,1.13
2023-05-19T05:03:52.705Z,1.15
2023-05-19T05:04:52.678Z,1.16
2023-05-19T05:05:52.688Z,1.14
2023-05-19T05:06:52.707Z,1.16
2023-05-19T05:07:52.718Z,1.12
2023-05-19T05:08:52.718Z,1.14
2023-05-19T05:09:52.758Z,1.14
2023-05-19T05:10:52.733Z,1.15
2023-05-19T05:11:52.755Z,1.16
2023-05-19T05:12:52.754Z,1.15
2023-05-19T05:13:52.778Z,1.15
2023-05-19T05:14:52.769Z,1.15
2023-05-19T05:15:52.810Z,1.14
2023-05-19T05:16:52.832Z,1.09
2023-05-19T05:17:52.823Z,1.14
2023-05-19T05:18:52.831Z,1.13
2023-05-19T05:19:52.843Z,1.13
2023-05-19T05:20:52.842Z,1.14
2023-05-19T05:21:52.847Z,1.14
2023-05-19T05:22:52.848Z,1.14
2023-05-19T05:23:52.860Z,1.14
2023-05-19T05:24:52.863Z,1.14
2023-05-19T05:25:52.880Z,1.15
2023-05-19T05:26:52.916Z,1.13
2023-05-19T05:27:52.893Z,1.13
2023-05-19T05:28:52.910Z,1.14
2023-05-19T05:29:53.053Z,1.12
2023-05-19T05:30:52.933Z,1.12
2023-05-19T05:31:52.917Z,1.15
2023-05-19T05:32:53.014Z,1.13
2023-05-19T05:33:52.955Z,1.12
2023-05-19T05:34:52.987Z,1.13
2023-05-19T05:35:53.044Z,1.14
2023-05-19T05:36:53.140Z,1.13
2023-05-19T05:37:53.148Z,1.13
2023-05-19T05:38:53.206Z,1.16
2023-05-19T05:39:53.263Z,1.14
2023-05-19T05:40:53.321Z,1.14
2023-05-19T05:41:53.406Z,1.16
2023-05-19T05:42:53.425Z,1.15
2023-05-19T05:43:53.498Z,1.17
2023-05-19T05:44:53.526Z,1.17
2023-05-19T05:45:53.614Z,1.16
2023-05-19T05:46:53.650Z,1.16
2023-05-19T05:47:53.717Z,1.18
2023-05-19T05:48:53.798Z,1.17
2023-05-19T05:49:53.799Z,1.20
2023-05-19T05:50:53.862Z,1.17
2023-05-19T05:52:04.985Z,1.16
2023-05-19T05:52:54.908Z,1.16
2023-05-19T05:53:53.924Z,1.16
2023-05-19T05:54:53.927Z,1.17
2023-05-19T05:55:53.923Z,1.18
2023-05-19T05:56:53.942Z,1.17
2023-05-19T05:57:53.933Z,1.18
2023-05-19T05:58:53.956Z,1.17
2023-05-19T05:59:53.958Z,1.18
2023-05-19T06:00:53.941Z,1.17
2023-05-19T06:01:53.974Z,1.18
2023-05-19T06:02:54.089Z,1.16
2023-05-19T06:03:53.986Z,1.17
2023-05-19T06:04:53.995Z,1.18
2023-05-19T06:05:54.073Z,1.19
2023-05-19T06:06:54.059Z,1.17
2023-05-19T06:07:54.119Z,1.14
2023-05-19T06:08:54.135Z,1.13
2023-05-19T06:09:54.193Z,1.15
2023-05-19T06:10:54.239Z,1.15
2023-05-19T06:11:54.310Z,1.15
2023-05-19T06:12:54.356Z,1.17
2023-05-19T06:13:54.427Z,1.16
2023-05-19T06:14:54.467Z,1.17
2023-05-19T06:15:54.512Z,1.16
2023-05-19T06:16:54.558Z,1.18
2023-05-19T06:17:54.650Z,1.16
2023-05-19T06:18:54.668Z,1.16
2023-05-19T06:19:54.705Z,1.18
2023-05-19T06:20:54.751Z,1.18
2023-05-19T06:21:54.777Z,1.14
2023-05-19T06:22:54.836Z,1.19
2023-05-19T06:23:54.900Z,1.16
2023-05-19T06:24:54.938Z,1.17
2023-05-19T06:25:54.988Z,1.18
2023-05-19T06:26:55.056Z,1.17
2023-05-19T06:27:55.062Z,1.18
2023-05-19T06:28:55.122Z,1.21
2023-05-19T06:29:55.181Z,1.21
2023-05-19T06:30:55.314Z,1.21
2023-05-19T06:31:55.368Z,1.22
2023-05-19T06:32:55.411Z,1.23
2023-05-19T06:33:55.369Z,1.21
2023-05-19T06:34:55.414Z,1.23
2023-05-19T06:35:55.480Z,1.24
2023-05-19T06:36:55.523Z,1.24
2023-05-19T06:37:55.553Z,1.24
2023-05-19T06:38:55.600Z,1.23
2023-05-19T06:39:55.654Z,1.23
2023-05-19T06:40:55.702Z,1.20
2023-05-19T06:41:55.744Z,1.21
2023-05-19T06:42:55.793Z,1.22
2023-05-19T06:43:55.817Z,1.21
2023-05-19T06:44:55.906Z,1.22
2023-05-19T06:45:55.911Z,1.21
2023-05-19T06:46:55.980Z,1.20
2023-05-19T06:47:56.072Z,1.18
2023-05-19T06:48:56.056Z,1.21
2023-05-19T06:49:56.126Z,1.20
2023-05-19T06:50:56.206Z,1.16
2023-05-19T06:51:56.216Z,1.20
2023-05-19T06:52:56.223Z,1.19
2023-05-19T06:53:56.252Z,1.18
2023-05-19T06:54:56.301Z,1.20
2023-05-19T06:55:59.814Z,1.21
2023-05-19T06:56:56.333Z,1.21
2023-05-19T06:57:56.334Z,1.22
2023-05-19T06:58:56.355Z,1.23
2023-05-19T06:59:56.322Z,1.32
2023-05-19T07:00:56.375Z,1.44
2023-05-19T07:01:56.389Z,1.50
2023-05-19T07:02:56.419Z,1.59
2023-05-19T07:03:56.412Z,1.67
2023-05-19T07:04:56.354Z,1.69
2023-05-19T07:05:56.362Z,1.70
2023-05-19T07:06:56.407Z,1.77
2023-05-19T07:07:56.337Z,1.83
2023-05-19T07:08:56.348Z,1.87
2023-05-19T07:09:56.356Z,1.88
2023-05-19T07:10:56.364Z,1.92
2023-05-19T07:11:56.366Z,1.91
2023-05-19T07:12:56.379Z,1.96
2023-05-19T07:13:56.392Z,1.95
2023-05-19T07:14:56.384Z,1.98
2023-05-19T07:15:56.430Z,1.99
2023-05-19T07:16:56.458Z,2.04
2023-05-19T07:17:56.419Z,2.05
2023-05-19T07:18:56.440Z,2.09
2023-05-19T07:19:56.395Z,2.10
2023-05-19T07:20:56.393Z,2.13
2023-05-19T07:21:56.406Z,2.16
2023-05-19T07:22:56.401Z,2.16
2023-05-19T07:23:56.438Z,2.21
2023-05-19T07:24:56.411Z,2.23
2023-05-19T07:25:56.409Z,2.25
2023-05-19T07:26:56.420Z,2.29
2023-05-19T07:27:56.438Z,2.33
2023-05-19T07:28:56.419Z,2.33
2023-05-19T07:29:56.408Z,2.40
2023-05-19T07:30:56.397Z,2.46
2023-05-19T07:31:56.473Z,2.57
2023-05-19T07:32:56.447Z,2.69
2023-05-19T07:33:56.422Z,2.86
2023-05-19T07:34:56.483Z,2.99
2023-05-19T07:35:56.511Z,3.25
2023-05-19T07:36:56.556Z,3.45
2023-05-19T07:37:56.586Z,3.77
2023-05-19T07:38:56.650Z,4.06
2023-05-19T07:39:56.730Z,4.40
2023-05-19T07:40:56.694Z,4.66
2023-05-19T07:41:56.737Z,4.90
2023-05-19T07:42:56.763Z,5.16
2023-05-19T07:43:56.807Z,5.31
2023-05-19T07:44:56.847Z,5.53
2023-05-19T07:45:56.907Z,5.60
2023-05-19T07:46:56.955Z,5.75
2023-05-19T07:47:57.013Z,5.77
2023-05-19T07:48:57.014Z,5.86
2023-05-19T07:49:57.091Z,5.80
2023-05-19T07:50:57.124Z,5.89
2023-05-19T07:51:57.222Z,5.84
2023-05-19T07:52:57.198Z,5.72
2023-05-19T07:53:57.309Z,5.73
2023-05-19T07:54:57.381Z,5.64
2023-05-19T07:55:58.731Z,5.58
2023-05-19T07:56:57.395Z,5.63
2023-05-19T07:57:57.443Z,5.51
2023-05-19T07:58:57.454Z,5.48
2023-05-19T07:59:57.514Z,5.39
2023-05-19T08:00:57.554Z,5.25
2023-05-19T08:01:57.568Z,5.28
2023-05-19T08:02:57.733Z,5.15
2023-05-19T08:03:57.780Z,5.10
2023-05-19T08:04:57.823Z,5.13
2023-05-19T08:05:57.717Z,4.82
2023-05-19T08:06:57.734Z,4.47
2023-05-19T08:07:57.774Z,4.08
2023-05-19T08:08:57.818Z,3.76
2023-05-19T08:09:57.852Z,3.48
2023-05-19T08:10:57.877Z,3.41
2023-05-19T08:11:57.837Z,3.13
2023-05-19T08:12:57.862Z,2.88
2023-05-19T08:13:57.854Z,2.67
2023-05-19T08:15:00.374Z,2.54
2023-05-19T08:15:57.897Z,2.45
2023-05-19T08:16:57.865Z,2.24
2023-05-19T08:17:57.865Z,2.08
2023-05-19T08:18:57.900Z,2.02
2023-05-19T08:19:57.839Z,1.89
2023-05-19T08:20:57.834Z,1.79
2023-05-19T08:21:57.863Z,1.70
2023-05-19T08:22:57.838Z,1.63
2023-05-19T08:23:57.842Z,1.55
2023-05-19T08:24:57.853Z,1.53
2023-05-19T08:25:57.827Z,1.43
2023-05-19T08:26:57.829Z,1.41
2023-05-19T08:27:57.822Z,1.34
2023-05-19T08:28:57.820Z,1.32
2023-05-19T08:29:57.814Z,1.26
2023-05-19T08:30:57.875Z,1.21
2023-05-19T08:31:57.862Z,1.18
2023-05-19T08:32:57.830Z,1.18
2023-05-19T08:33:57.828Z,1.10
2023-05-19T08:34:57.813Z,1.08
2023-05-19T08:35:57.852Z,1.07
2023-05-19T08:36:57.829Z,1.02
2023-05-19T08:37:57.821Z,0.98
2023-05-19T08:38:57.873Z,0.98
2023-05-19T08:39:57.840Z,0.95
2023-05-19T08:40:57.833Z,0.92
2023-05-19T08:41:57.963Z,0.91
2023-05-19T08:42:57.946Z,0.87
2023-05-19T08:43:58.035Z,0.85
2023-05-19T08:44:58.093Z,0.84
2023-05-19T08:45:58.142Z,0.79
2023-05-19T08:46:58.270Z,0.77
2023-05-19T08:47:58.294Z,0.78
2023-05-19T08:48:58.327Z,0.76
2023-05-19T08:49:58.392Z,0.75
2023-05-19T08:50:58.457Z,0.76
2023-05-19T08:51:58.619Z,0.78
2023-05-19T08:52:58.666Z,0.81
2023-05-19T08:53:58.598Z,0.82
2023-05-19T08:54:58.651Z,0.86
2023-05-19T08:55:58.671Z,0.88
2023-05-19T08:56:58.722Z,0.91
2023-05-19T08:57:58.749Z,0.92
2023-05-19T08:58:58.792Z,0.93
2023-05-19T08:59:58.845Z,0.96
2023-05-19T09:00:58.856Z,0.98
2023-05-19T09:01:58.876Z,1.01
2023-05-19T09:03:00.791Z,1.03
2023-05-19T09:04:00.030Z,1.03
2023-05-19T09:04:59.055Z,1.04
2023-05-19T09:05:58.950Z,1.05
2023-05-19T09:06:58.930Z,1.07
2023-05-19T09:07:58.895Z,1.12
2023-05-19T09:08:58.875Z,1.04
2023-05-19T09:09:58.873Z,1.05
2023-05-19T09:10:58.865Z,1.09
2023-05-19T09:11:58.866Z,1.13
2023-05-19T09:12:58.868Z,1.04
2023-05-19T09:13:58.854Z,1.04
2023-05-19T09:14:58.866Z,1.06
2023-05-19T09:15:58.831Z,1.11
2023-05-19T09:16:58.857Z,1.21
2023-05-19T09:17:58.860Z,1.31
2023-05-19T09:18:58.894Z,1.33
2023-05-19T09:19:58.824Z,1.37
2023-05-19T09:20:58.835Z,1.38
2023-05-19T09:21:58.841Z,1.39
2023-05-19T09:22:58.845Z,1.37
2023-05-19T09:23:58.836Z,1.36
2023-05-19T09:24:58.856Z,1.37
2023-05-19T09:25:58.827Z,1.38
2023-05-19T09:27:00.114Z,1.42
2023-05-19T09:27:58.841Z,1.42
2023-05-19T09:28:58.847Z,1.42
2023-05-19T09:29:58.825Z,1.52
2023-05-19T09:30:58.823Z,1.49
2023-05-19T09:31:58.933Z,1.53
2023-05-19T09:32:58.963Z,1.55
2023-05-19T09:33:59.016Z,1.46
2023-05-19T09:34:59.066Z,1.54
2023-05-19T09:35:59.135Z,1.54
2023-05-19T09:36:59.205Z,1.62
2023-05-19T09:37:59.241Z,1.57
2023-05-19T09:38:59.303Z,1.61
2023-05-19T09:39:59.300Z,1.61
2023-05-19T09:40:59.312Z,1.60
2023-05-19T09:41:59.296Z,1.59
2023-05-19T09:42:59.270Z,1.67
2023-05-19T09:43:59.285Z,1.63
2023-05-19T09:44:59.309Z,1.72
2023-05-19T09:45:59.310Z,1.74
2023-05-19T09:46:59.273Z,1.70
2023-05-19T09:47:59.289Z,1.69
2023-05-19T09:48:59.331Z,1.66
2023-05-19T09:49:59.437Z,1.76
2023-05-19T09:50:59.448Z,1.75
2023-05-19T09:51:59.530Z,1.68
2023-05-19T09:52:59.533Z,1.84
2023-05-19T09:53:59.624Z,1.79
2023-05-19T09:54:59.643Z,1.78
2023-05-19T09:55:59.710Z,1.83
2023-05-19T09:56:59.866Z,1.76
2023-05-19T09:57:59.812Z,1.83
2023-05-19T09:58:59.874Z,1.80
2023-05-19T09:59:59.903Z,1.82
2023-05-19T10:00:59.986Z,1.86
2023-05-19T10:02:00.005Z,1.86
2023-05-19T10:03:00.176Z,1.86
2023-05-19T10:04:00.145Z,1.83
2023-05-19T10:05:00.309Z,1.86
2023-05-19T10:06:00.162Z,1.86
2023-05-19T10:07:00.326Z,1.92
2023-05-19T10:08:00.274Z,1.93
2023-05-19T10:09:00.293Z,1.90
2023-05-19T10:10:00.353Z,1.88
2023-05-19T10:11:00.361Z,1.92
2023-05-19T10:12:00.402Z,1.88
2023-05-19T10:13:00.443Z,1.95
2023-05-19T10:14:00.468Z,1.92
2023-05-19T10:15:00.487Z,1.96
2023-05-19T10:16:00.858Z,2.00
2023-05-19T10:17:00.705Z,1.99
2023-05-19T10:18:00.600Z,1.97
2023-05-19T10:19:00.633Z,1.98
2023-05-19T10:20:00.643Z,2.03
2023-05-19T10:21:00.688Z,2.04
2023-05-19T10:22:00.737Z,2.11
2023-05-19T10:23:00.748Z,2.01
2023-05-19T10:24:00.788Z,2.10
2023-05-19T10:25:00.825Z,1.98
2023-05-19T10:26:00.784Z,1.99
2023-05-19T10:27:00.788Z,2.01
2023-05-19T10:28:00.746Z,2.03
2023-05-19T10:29:00.793Z,2.07
2023-05-19T10:30:00.756Z,2.08
2023-05-19T10:31:00.729Z,2.07
2023-05-19T10:32:00.716Z,2.06
2023-05-19T10:33:00.713Z,2.08
2023-05-19T10:34:00.677Z,2.12
2023-05-19T10:35:00.677Z,2.16
2023-05-19T10:36:00.661Z,2.15
2023-05-19T10:37:00.715Z,2.07
2023-05-19T10:38:00.730Z,2.11
2023-05-19T10:39:00.748Z,2.12
2023-05-19T10:40:00.777Z,2.16
2023-05-19T10:41:00.827Z,2.15
2023-05-19T10:42:00.851Z,2.20
2023-05-19T10:43:00.870Z,2.16
2023-05-19T10:44:00.930Z,2.16
2023-05-19T10:45:01.028Z,2.19
2023-05-19T10:46:00.957Z,2.24
2023-05-19T10:47:01.021Z,2.20
2023-05-19T10:48:01.083Z,2.20
2023-05-19T10:49:01.084Z,2.23
2023-05-19T10:50:01.097Z,2.25
2023-05-19T10:51:01.147Z,2.26
2023-05-19T10:52:01.207Z,2.28
2023-05-19T10:53:01.258Z,2.24
2023-05-19T10:54:01.288Z,2.20
2023-05-19T10:55:01.297Z,2.29
2023-05-19T10:56:01.365Z,2.26
2023-05-19T10:57:01.364Z,2.25
2023-05-19T10:58:01.421Z,2.25
2023-05-19T10:59:01.442Z,2.31
2023-05-19T11:00:01.500Z,2.29
2023-05-19T11:01:01.644Z,2.33
2023-05-19T11:02:01.580Z,2.32
2023-05-19T11:03:01.631Z,2.29
2023-05-19T11:04:01.762Z,2.39
2023-05-19T11:05:01.673Z,2.34
2023-05-19T11:06:01.668Z,2.34
2023-05-19T11:07:01.697Z,2.28
2023-05-19T11:08:01.750Z,2.32
2023-05-19T11:09:01.762Z,2.36
2023-05-19T11:10:01.793Z,2.35
2023-05-19T11:11:01.812Z,2.41
2023-05-19T11:12:01.886Z,2.34
2023-05-19T11:13:01.890Z,2.33
2023-05-19T11:14:01.924Z,2.38
2023-05-19T11:15:01.995Z,2.38
2023-05-19T11:16:01.976Z,2.37
2023-05-19T11:17:02.076Z,2.38
2023-05-19T11:18:02.112Z,2.36
2023-05-19T11:19:02.154Z,2.40
2023-05-19T11:20:02.109Z,2.35
2023-05-19T11:21:02.313Z,2.41
2023-05-19T11:22:02.183Z,2.40
2023-05-19T11:23:02.271Z,2.38
2023-05-19T11:24:02.448Z,2.42
2023-05-19T11:25:02.278Z,2.36
2023-05-19T11:26:02.330Z,2.42
2023-05-19T11:27:02.381Z,2.38
2023-05-19T11:28:02.397Z,2.36
2023-05-19T11:29:02.400Z,2.39
2023-05-19T11:30:02.478Z,2.40
2023-05-19T11:31:02.492Z,2.37
2023-05-19T11:32:02.579Z,2.46
2023-05-19T11:33:02.566Z,2.38
2023-05-19T11:34:02.569Z,2.45
2023-05-19T11:35:02.617Z,2.47
2023-05-19T11:36:02.655Z,2.44
2023-05-19T11:37:02.689Z,2.42
2023-05-19T11:38:02.702Z,2.45
2023-05-19T11:39:02.752Z,2.38
2023-05-19T11:40:02.775Z,2.46
2023-05-19T11:41:02.816Z,2.47
2023-05-19T11:42:02.857Z,2.42
2023-05-19T11:43:02.877Z,2.51
2023-05-19T11:44:02.907Z,2.47
2023-05-19T11:45:02.915Z,2.46
2023-05-19T11:46:03.002Z,2.51
2023-05-19T11:47:02.998Z,2.47
2023-05-19T11:48:03.579Z,2.51
2023-05-19T11:49:03.080Z,2.49
2023-05-19T11:50:03.114Z,2.46
2023-05-19T11:51:03.168Z,2.53
2023-05-19T11:52:03.237Z,2.51
2023-05-19T11:53:03.236Z,2.48
2023-05-19T11:54:03.284Z,2.48
2023-05-19T11:55:03.321Z,2.51
2023-05-19T11:56:03.359Z,2.52
2023-05-19T11:57:03.413Z,2.49
2023-05-19T11:58:05.070Z,2.48
2023-05-19T11:59:03.457Z,2.48
2023-05-19T12:00:03.514Z,2.48
2023-05-19T12:01:03.540Z,2.47
2023-05-19T12:02:03.567Z,2.56
2023-05-19T12:03:03.603Z,2.50
2023-05-19T12:04:03.623Z,2.53
2023-05-19T12:05:03.701Z,2.52
2023-05-19T12:06:03.606Z,2.50
2023-05-19T12:07:03.666Z,2.51
2023-05-19T12:08:03.605Z,2.51
2023-05-19T12:09:03.614Z,2.48
2023-05-19T12:10:03.634Z,2.48
2023-05-19T12:11:03.631Z,2.52
2023-05-19T12:12:03.696Z,2.50
2023-05-19T12:13:03.668Z,2.50
2023-05-19T12:14:03.719Z,2.51
2023-05-19T12:15:03.727Z,2.51
2023-05-19T12:16:03.796Z,2.55
2023-05-19T12:17:03.778Z,2.50
2023-05-19T12:18:03.920Z,2.50
2023-05-19T12:19:03.882Z,2.54
2023-05-19T12:20:03.872Z,2.58
2023-05-19T12:21:04.008Z,2.56
2023-05-19T12:22:04.180Z,2.53
2023-05-19T12:23:04.187Z,2.53
2023-05-19T12:24:03.994Z,2.56
2023-05-19T12:25:03.999Z,2.50
2023-05-19T12:26:04.025Z,2.57
2023-05-19T12:27:04.065Z,2.55
2023-05-19T12:28:04.109Z,2.58
2023-05-19T12:29:04.118Z,2.57
2023-05-19T12:30:04.123Z,2.57
2023-05-19T12:31:04.178Z,2.54
2023-05-19T12:32:04.205Z,2.56
2023-05-19T12:33:04.358Z,2.55
2023-05-19T12:34:04.232Z,2.55
2023-05-19T12:35:04.260Z,2.57
2023-05-19T12:36:04.296Z,2.62
2023-05-19T12:37:04.338Z,2.54
2023-05-19T12:38:04.348Z,2.56
2023-05-19T12:39:04.400Z,2.63
2023-05-19T12:40:04.401Z,2.55
2023-05-19T12:41:04.428Z,2.59
2023-05-19T12:42:04.474Z,2.56
2023-05-19T12:43:04.543Z,2.58
2023-05-19T12:44:04.491Z,2.57
2023-05-19T12:45:04.559Z,2.62
2023-05-19T12:46:04.566Z,2.58
2023-05-19T12:47:04.605Z,2.57
2023-05-19T12:48:04.668Z,2.64
2023-05-19T12:49:04.647Z,2.55
2023-05-19T12:50:04.806Z,2.59
2023-05-19T12:51:04.666Z,2.58
2023-05-19T12:52:09.222Z,2.59
2023-05-19T12:53:05.713Z,2.59
2023-05-19T12:54:04.732Z,2.61
2023-05-19T12:55:04.911Z,2.58
2023-05-19T12:56:04.702Z,2.59
2023-05-19T12:57:04.710Z,2.61
2023-05-19T12:58:04.708Z,2.58
2023-05-19T12:59:04.710Z,2.65
2023-05-19T13:00:04.716Z,2.61
2023-05-19T13:01:04.810Z,2.65
2023-05-19T13:02:04.873Z,2.55
2023-05-19T13:03:04.785Z,2.63
2023-05-19T13:04:06.402Z,2.56
2023-05-19T13:05:04.645Z,2.64
2023-05-19T13:06:04.673Z,2.58
2023-05-19T13:07:04.659Z,2.59
2023-05-19T13:08:04.603Z,2.59
2023-05-19T13:09:04.634Z,2.53
2023-05-19T13:10:04.584Z,2.58
2023-05-19T13:11:04.604Z,2.57
2023-05-19T13:12:04.602Z,2.61
2023-05-19T13:13:04.612Z,2.61
2023-05-19T13:14:04.603Z,2.58
2023-05-19T13:15:04.607Z,2.61
2023-05-19T13:16:04.614Z,2.60
2023-05-19T13:17:04.618Z,2.61
2023-05-19T13:18:04.627Z,2.61
2023-05-19T13:19:06.260Z,2.60